createdAt,value
2018-08-10T00:02:04.998Z,19.30
2018-08-10T00:04:35.367Z,19.40
2018-08-10T00:07:05.875Z,19.50
2018-08-10T00:09:36.774Z,19.50
2018-08-10T00:12:07.101Z,19.50
2018-08-10T00:14:37.542Z,19.60
2018-08-10T00:17:08.060Z,19.50
2018-08-10T00:19:38.523Z,19.50
2018-08-10T00:22:08.951Z,19.50
2018-08-10T00:24:39.535Z,19.50
2018-08-10T00:27:10.103Z,19.50
2018-08-10T00:29:40.763Z,19.40
2018-08-10T00:32:11.178Z,19.40
2018-08-10T00:34:41.575Z,19.40
2018-08-10T00:37:11.847Z,19.40
2018-08-10T00:39:42.147Z,19.40
2018-08-10T00:42:12.536Z,19.30
2018-08-10T00:44:43.107Z,19.40
2018-08-10T00:47:13.430Z,19.30
2018-08-10T00:49:43.923Z,19.30
2018-08-10T00:52:14.255Z,19.30
2018-08-10T00:54:44.623Z,19.30
2018-08-10T00:57:15.078Z,19.20
2018-08-10T00:59:45.492Z,19.10
2018-08-10T01:02:15.850Z,19.10
2018-08-10T01:04:46.391Z,19.00
2018-08-10T01:07:16.730Z,19.00
2018-08-10T01:09:47.162Z,19.00
2018-08-10T01:12:17.759Z,19.00
2018-08-10T01:14:48.294Z,19.10
2018-08-10T01:17:18.886Z,19.10
2018-08-10T01:19:49.706Z,19.10
2018-08-10T01:22:20.314Z,19.00
2018-08-10T01:24:51.479Z,19.00
2018-08-10T01:27:26.822Z,19.00
2018-08-10T01:29:57.168Z,19.00
2018-08-10T01:32:27.545Z,19.20
2018-08-10T01:34:57.928Z,19.10
2018-08-10T01:37:28.418Z,19.10
2018-08-10T01:39:58.599Z,19.00
2018-08-10T01:42:28.938Z,19.00
2018-08-10T01:44:59.364Z,19.00
2018-08-10T01:47:29.735Z,19.00
2018-08-10T01:50:00.162Z,19.00
2018-08-10T01:52:30.557Z,19.00
2018-08-10T01:55:00.965Z,19.00
2018-08-10T01:57:31.590Z,19.00
2018-08-10T02:00:02.222Z,18.90
2018-08-10T02:02:32.661Z,18.80
2018-08-10T02:05:02.998Z,18.80
2018-08-10T02:07:36.760Z,18.80
2018-08-10T02:10:10.664Z,18.80
2018-08-10T02:12:41.875Z,18.70
2018-08-10T02:15:14.820Z,18.70
2018-08-10T02:17:45.488Z,18.80
2018-08-10T02:20:17.311Z,18.70
2018-08-10T02:22:47.904Z,18.70
2018-08-10T02:25:19.690Z,18.70
2018-08-10T02:27:50.919Z,18.60
2018-08-10T02:30:22.250Z,18.60
2018-08-10T02:32:52.972Z,18.60
2018-08-10T02:35:23.266Z,18.60
2018-08-10T02:37:53.699Z,18.60
2018-08-10T02:40:24.390Z,18.60
2018-08-10T02:42:54.867Z,18.50
2018-08-10T02:45:25.303Z,18.50
2018-08-10T02:47:55.870Z,18.50
2018-08-10T02:50:26.403Z,18.50
2018-08-10T02:52:56.858Z,18.40
2018-08-10T02:55:27.416Z,18.30
2018-08-10T02:57:58.135Z,18.30
2018-08-10T03:00:28.436Z,18.20
2018-08-10T03:02:58.829Z,18.30
2018-08-10T03:05:29.331Z,18.20
2018-08-10T03:07:59.760Z,18.20
2018-08-10T03:10:30.247Z,17.90
2018-08-10T03:13:00.723Z,17.60
2018-08-10T03:15:31.139Z,17.40
2018-08-10T03:18:01.663Z,17.30
2018-08-10T03:20:31.971Z,17.10
2018-08-10T03:23:02.399Z,17.00
2018-08-10T03:25:32.686Z,16.90
2018-08-10T03:28:03.159Z,16.80
2018-08-10T03:30:33.490Z,16.70
2018-08-10T03:33:03.929Z,16.50
2018-08-10T03:35:34.296Z,16.20
2018-08-10T03:38:04.632Z,16.00
2018-08-10T03:40:34.956Z,15.90
2018-08-10T03:43:05.379Z,15.90
2018-08-10T03:45:35.786Z,15.90
2018-08-10T03:48:06.304Z,15.80
2018-08-10T03:50:36.573Z,15.70
2018-08-10T03:53:07.219Z,15.50
2018-08-10T03:55:37.588Z,15.40
2018-08-10T03:58:08.076Z,15.30
2018-08-10T04:00:38.618Z,15.30
2018-08-10T04:03:09.271Z,15.20
2018-08-10T04:05:39.703Z,15.20
2018-08-10T04:08:10.333Z,15.20
2018-08-10T04:10:40.848Z,15.10
2018-08-10T04:13:11.309Z,15.10
2018-08-10T04:15:41.914Z,15.00
2018-08-10T04:18:12.259Z,15.00
2018-08-10T04:20:42.636Z,15.00
2018-08-10T04:23:12.951Z,15.00
2018-08-10T04:25:43.266Z,15.00
2018-08-10T04:28:13.677Z,15.00
2018-08-10T04:30:44.270Z,15.00
2018-08-10T04:33:14.541Z,15.10
2018-08-10T04:35:45.084Z,15.10
2018-08-10T04:38:15.742Z,15.10
2018-08-10T04:40:46.292Z,15.10
2018-08-10T04:43:16.823Z,15.10
2018-08-10T04:45:47.208Z,15.10
2018-08-10T04:48:17.565Z,15.10
2018-08-10T04:50:47.826Z,15.10
2018-08-10T04:53:18.214Z,15.10
2018-08-10T04:55:48.712Z,15.10
2018-08-10T04:58:19.249Z,15.10
2018-08-10T05:00:49.603Z,15.10
2018-08-10T05:03:19.938Z,15.10
2018-08-10T05:05:50.330Z,15.00
2018-08-10T05:08:20.661Z,15.00
2018-08-10T05:10:51.070Z,15.10
2018-08-10T05:13:21.412Z,15.00
2018-08-10T05:15:51.861Z,15.00
2018-08-10T05:18:22.211Z,15.00
2018-08-10T05:20:52.672Z,15.00
2018-08-10T05:23:23.179Z,15.00
2018-08-10T05:25:53.707Z,15.00
2018-08-10T05:28:24.164Z,14.90
2018-08-10T05:30:54.472Z,14.90
2018-08-10T05:33:24.910Z,15.00
2018-08-10T05:35:55.333Z,15.00
2018-08-10T05:38:25.888Z,15.00
2018-08-10T05:40:56.405Z,15.00
2018-08-10T05:43:28.682Z,15.10
2018-08-10T05:45:59.211Z,15.10
2018-08-10T05:48:33.426Z,15.10
2018-08-10T05:51:03.923Z,15.10
2018-08-10T05:53:34.183Z,15.20
2018-08-10T05:56:04.539Z,15.20
2018-08-10T05:58:35.022Z,15.20
2018-08-10T06:01:05.923Z,15.30
2018-08-10T06:03:36.215Z,15.30
2018-08-10T06:06:06.798Z,15.30
2018-08-10T06:08:37.080Z,15.40
2018-08-10T06:11:07.789Z,15.60
2018-08-10T06:13:38.301Z,15.70
2018-08-10T06:16:08.738Z,15.70
2018-08-10T06:18:39.364Z,15.70
2018-08-10T06:21:09.854Z,15.70
2018-08-10T06:23:40.466Z,15.70
2018-08-10T06:26:11.155Z,15.80
2018-08-10T06:28:41.747Z,15.90
2018-08-10T06:31:12.123Z,16.00
2018-08-10T06:33:42.621Z,16.10
2018-08-10T06:36:13.135Z,16.20
2018-08-10T06:38:43.579Z,16.30
2018-08-10T06:41:13.946Z,16.30
2018-08-10T06:43:44.419Z,16.30
2018-08-10T06:46:14.954Z,16.30
2018-08-10T06:48:45.383Z,16.40
2018-08-10T06:51:15.866Z,16.40
2018-08-10T06:53:46.328Z,16.50
2018-08-10T06:56:16.774Z,16.50
2018-08-10T06:58:47.438Z,16.50
2018-08-10T07:01:17.630Z,16.50
2018-08-10T07:03:48.117Z,16.70
2018-08-10T07:06:18.505Z,16.70
2018-08-10T07:08:48.951Z,16.80
2018-08-10T07:11:19.226Z,16.90
2018-08-10T07:13:49.530Z,17.00
2018-08-10T07:16:19.806Z,17.00
2018-08-10T07:18:50.271Z,17.00
2018-08-10T07:21:20.513Z,17.10
2018-08-10T07:23:50.529Z,17.40
2018-08-10T07:26:20.481Z,17.70
2018-08-10T07:28:50.497Z,17.70
2018-08-10T07:31:20.513Z,17.90
2018-08-10T07:33:50.625Z,17.80
2018-08-10T07:36:20.660Z,17.80
2018-08-10T07:38:50.646Z,17.80
2018-08-10T07:41:20.762Z,17.80
2018-08-10T07:43:50.701Z,17.80
2018-08-10T07:46:20.695Z,18.00
2018-08-10T07:48:50.852Z,18.20
2018-08-10T07:51:21.793Z,18.40
2018-08-10T07:53:52.025Z,18.70
2018-08-10T07:56:21.966Z,18.60
2018-08-10T07:58:52.094Z,18.90
2018-08-10T08:01:22.221Z,19.00
2018-08-10T08:03:52.273Z,19.10
2018-08-10T08:06:22.256Z,19.70
2018-08-10T08:08:52.651Z,19.90
2018-08-10T08:11:22.802Z,20.00
2018-08-10T08:13:53.187Z,20.40
2018-08-10T08:16:23.391Z,20.80
2018-08-10T08:18:53.618Z,20.90
2018-08-10T08:21:23.690Z,20.90
2018-08-10T08:23:53.865Z,21.50
2018-08-10T08:26:23.994Z,22.00
2018-08-10T08:28:54.188Z,22.30
2018-08-10T08:31:24.333Z,22.80
2018-08-10T08:34:05.465Z,22.90
2018-08-10T08:36:35.843Z,22.60
2018-08-10T08:39:28.313Z,23.00
2018-08-10T08:41:58.494Z,23.30
2018-08-10T08:45:46.148Z,24.40
2018-08-10T08:48:16.121Z,24.50
2018-08-10T08:50:47.714Z,24.20
2018-08-10T08:53:17.777Z,24.00
2018-08-10T08:55:51.980Z,23.20
2018-08-10T08:58:22.389Z,24.40
2018-08-10T09:00:52.590Z,26.20
2018-08-10T09:03:39.549Z,26.70
2018-08-10T09:06:09.750Z,27.60
2018-08-10T09:08:44.320Z,27.10
2018-08-10T09:11:14.717Z,27.30
2018-08-10T09:14:54.642Z,28.20
2018-08-10T09:17:24.961Z,28.00
2018-08-10T09:19:55.206Z,27.60
2018-08-10T09:22:25.350Z,26.70
2018-08-10T09:24:55.638Z,26.80
2018-08-10T09:27:25.819Z,26.50
2018-08-10T09:29:55.805Z,26.00
2018-08-10T09:32:26.069Z,25.50
2018-08-10T09:34:56.158Z,24.80
2018-08-10T09:37:26.264Z,24.30
2018-08-10T09:39:56.566Z,24.20
2018-08-10T09:42:26.506Z,25.10
2018-08-10T09:44:57.769Z,25.70
2018-08-10T09:50:18.768Z,25.20
2018-08-10T09:53:02.226Z,25.70
2018-08-10T09:58:20.047Z,26.40
2018-08-10T10:00:55.827Z,25.10
2018-08-10T10:03:26.669Z,25.20
2018-08-10T10:05:58.661Z,26.90
2018-08-10T10:08:28.975Z,27.80
2018-08-10T10:10:59.241Z,28.40
2018-08-10T10:13:29.398Z,28.50
2018-08-10T10:15:59.544Z,28.60
2018-08-10T10:18:29.646Z,28.20
2018-08-10T10:21:00.063Z,28.10
2018-08-10T10:23:30.221Z,27.50
2018-08-10T10:26:00.309Z,28.00
2018-08-10T10:28:32.270Z,28.50
2018-08-10T10:31:05.679Z,27.90
2018-08-10T10:33:37.766Z,27.80
2018-08-10T10:36:11.174Z,28.20
2018-08-10T10:38:43.323Z,29.40
2018-08-10T10:41:13.885Z,29.60
2018-08-10T10:43:44.051Z,29.50
2018-08-10T10:46:14.134Z,28.40
2018-08-10T10:48:44.626Z,26.40
2018-08-10T10:51:14.794Z,25.20
2018-08-10T10:53:44.821Z,24.40
2018-08-10T10:56:15.100Z,25.10
2018-08-10T10:58:45.123Z,26.40
2018-08-10T11:01:15.108Z,26.90
2018-08-10T11:03:45.266Z,27.40
2018-08-10T11:06:15.407Z,28.00
2018-08-10T11:08:45.739Z,28.00
2018-08-10T11:11:17.513Z,28.60
2018-08-10T11:13:48.014Z,30.40
2018-08-10T11:16:18.114Z,29.00
2018-08-10T11:18:48.693Z,27.70
2018-08-10T11:21:18.726Z,26.80
2018-08-10T11:23:48.738Z,28.70
2018-08-10T11:26:18.977Z,30.60
2018-08-10T11:28:49.185Z,30.70
2018-08-10T11:31:19.959Z,28.60
2018-08-10T11:33:50.121Z,28.70
2018-08-10T11:36:20.210Z,30.40
2018-08-10T11:38:50.103Z,30.00
2018-08-10T11:41:20.740Z,29.70
2018-08-10T11:43:50.825Z,29.90
2018-08-10T11:46:20.925Z,30.10
2018-08-10T11:48:51.101Z,30.20
2018-08-10T11:51:21.026Z,30.20
2018-08-10T11:53:51.157Z,30.50
2018-08-10T11:56:21.349Z,29.90
2018-08-10T11:58:51.580Z,30.10
2018-08-10T12:01:21.679Z,32.00
2018-08-10T12:03:51.674Z,33.20
2018-08-10T12:06:21.789Z,32.40
2018-08-10T12:08:51.886Z,32.90
2018-08-10T12:11:21.855Z,33.00
2018-08-10T12:13:52.050Z,32.30
2018-08-10T12:16:22.318Z,31.70
2018-08-10T12:18:52.568Z,31.70
2018-08-10T12:21:22.807Z,31.80
2018-08-10T12:23:52.977Z,32.10
2018-08-10T12:26:23.153Z,32.40
2018-08-10T12:28:53.292Z,32.00
2018-08-10T12:31:23.469Z,32.20
2018-08-10T12:33:53.461Z,31.60
2018-08-10T12:36:23.569Z,32.00
2018-08-10T12:38:53.757Z,32.50
2018-08-10T12:41:23.854Z,31.50
2018-08-10T12:43:54.249Z,31.10
2018-08-10T12:46:24.429Z,31.60
2018-08-10T12:48:54.658Z,31.80
2018-08-10T12:51:25.037Z,31.50
2018-08-10T12:53:55.158Z,31.90
2018-08-10T12:56:25.085Z,30.60
2018-08-10T12:58:55.169Z,29.70
2018-08-10T13:01:25.416Z,30.00
2018-08-10T13:03:55.888Z,30.80
2018-08-10T13:06:25.999Z,29.50
2018-08-10T13:08:56.121Z,29.10
2018-08-10T13:11:26.385Z,28.60
2018-08-10T13:13:56.537Z,28.50
2018-08-10T13:16:26.514Z,29.10
2018-08-10T13:18:56.893Z,29.00
2018-08-10T13:21:26.921Z,29.00
2018-08-10T13:23:56.936Z,30.70
2018-08-10T13:26:27.089Z,32.50
2018-08-10T13:28:57.169Z,32.10
2018-08-10T13:31:27.422Z,32.60
2018-08-10T13:33:57.476Z,33.10
2018-08-10T13:36:27.498Z,32.90
2018-08-10T13:38:57.527Z,31.90
2018-08-10T13:41:27.587Z,30.20
2018-08-10T13:43:57.676Z,31.00
2018-08-10T13:46:27.813Z,31.80
2018-08-10T13:48:58.076Z,32.70
2018-08-10T13:51:28.101Z,32.80
2018-08-10T13:53:58.179Z,32.40
2018-08-10T13:56:28.302Z,32.40
2018-08-10T13:58:58.594Z,33.00
2018-08-10T14:01:28.830Z,32.70
2018-08-10T14:03:58.941Z,31.00
2018-08-10T14:06:29.107Z,30.80
2018-08-10T14:08:59.322Z,30.40
2018-08-10T14:11:29.420Z,29.40
2018-08-10T14:13:59.561Z,28.80
2018-08-10T14:16:29.510Z,27.60
2018-08-10T14:18:59.794Z,27.40
2018-08-10T14:21:29.976Z,28.40
2018-08-10T14:24:00.173Z,28.80
2018-08-10T14:26:30.397Z,28.50
2018-08-10T14:29:00.734Z,28.20
2018-08-10T14:31:30.897Z,27.10
2018-08-10T14:34:00.853Z,26.40
2018-08-10T14:36:31.005Z,26.40
2018-08-10T14:39:01.108Z,26.10
2018-08-10T14:41:31.255Z,25.60
2018-08-10T14:44:01.608Z,25.70
2018-08-10T14:49:25.875Z,27.40
2018-08-10T14:51:56.029Z,29.10
2018-08-10T14:54:26.190Z,30.00
2018-08-10T14:56:56.285Z,30.70
2018-08-10T14:59:26.581Z,31.50
2018-08-10T15:01:57.095Z,32.30
2018-08-10T15:04:27.290Z,32.20
2018-08-10T15:06:57.297Z,31.30
2018-08-10T15:09:27.497Z,30.10
2018-08-10T15:11:57.639Z,29.00
2018-08-10T15:14:27.557Z,28.00
2018-08-10T15:16:57.582Z,27.20
2018-08-10T15:19:27.623Z,26.50
2018-08-10T15:21:57.643Z,26.00
2018-08-10T15:24:27.785Z,25.50
2018-08-10T15:26:57.929Z,25.30
2018-08-10T15:29:28.048Z,25.00
2018-08-10T15:31:58.146Z,24.50
2018-08-10T15:34:28.197Z,24.50
2018-08-10T15:36:58.362Z,24.80
2018-08-10T15:39:28.441Z,24.60
2018-08-10T15:41:58.386Z,24.50
2018-08-10T15:44:28.441Z,24.50
2018-08-10T15:46:58.801Z,24.30
2018-08-10T15:49:28.873Z,24.30
2018-08-10T15:51:58.941Z,24.40
2018-08-10T15:54:29.153Z,24.50
2018-08-10T15:56:59.327Z,24.60
2018-08-10T15:59:29.233Z,25.90
2018-08-10T16:02:00.297Z,27.50
2018-08-10T16:04:31.091Z,28.80
2018-08-10T16:07:01.297Z,30.00
2018-08-10T16:09:31.269Z,30.90
2018-08-10T16:12:01.389Z,31.70
2018-08-10T16:14:31.747Z,32.00
2018-08-10T16:17:02.589Z,31.90
2018-08-10T16:19:33.313Z,31.40
2018-08-10T16:22:04.949Z,30.30
2018-08-10T16:24:35.121Z,29.30
2018-08-10T16:27:05.285Z,27.80
2018-08-10T16:29:35.438Z,27.10
2018-08-10T16:32:05.509Z,26.20
2018-08-10T16:34:35.768Z,26.60
2018-08-10T16:37:06.162Z,27.20
2018-08-10T16:39:36.621Z,27.90
2018-08-10T16:42:07.040Z,28.70
2018-08-10T16:44:37.500Z,28.70
2018-08-10T16:47:07.799Z,29.00
2018-08-10T16:49:37.905Z,29.10
2018-08-10T16:52:08.760Z,28.50
2018-08-10T16:54:38.724Z,27.60
2018-08-10T16:57:08.888Z,26.50
2018-08-10T16:59:39.249Z,25.30
2018-08-10T17:02:10.849Z,24.60
2018-08-10T17:04:41.001Z,23.90
2018-08-10T17:07:11.146Z,23.40
2018-08-10T17:09:41.293Z,23.10
2018-08-10T17:12:11.538Z,23.10
2018-08-10T17:14:41.657Z,23.70
2018-08-10T17:17:11.777Z,24.50
2018-08-10T17:19:41.841Z,24.40
2018-08-10T17:22:11.744Z,24.20
2018-08-10T17:24:41.900Z,23.90
2018-08-10T17:27:12.048Z,23.50
2018-08-10T17:29:42.245Z,23.20
2018-08-10T17:32:12.511Z,22.80
2018-08-10T17:34:42.653Z,22.50
2018-08-10T17:37:12.856Z,22.30
2018-08-10T17:39:43.115Z,22.20
2018-08-10T17:42:13.319Z,22.00
2018-08-10T17:44:43.405Z,22.00
2018-08-10T17:47:13.497Z,21.80
2018-08-10T17:49:43.547Z,21.70
2018-08-10T17:52:13.689Z,21.70
2018-08-10T17:54:43.845Z,21.70
2018-08-10T17:57:13.996Z,21.70
2018-08-10T17:59:44.113Z,21.70
2018-08-10T18:02:14.662Z,21.60
2018-08-10T18:04:44.626Z,21.60
2018-08-10T18:07:14.921Z,21.50
2018-08-10T18:09:45.046Z,21.40
2018-08-10T18:12:15.039Z,21.30
2018-08-10T18:14:44.990Z,21.20
2018-08-10T18:17:15.065Z,21.20
2018-08-10T18:19:45.079Z,21.10
2018-08-10T18:22:15.179Z,21.00
2018-08-10T18:24:45.156Z,20.90
2018-08-10T18:27:15.279Z,20.70
2018-08-10T18:29:45.418Z,20.60
2018-08-10T18:32:15.822Z,20.50
2018-08-10T18:34:46.026Z,20.40
2018-08-10T18:37:16.118Z,20.20
2018-08-10T18:39:47.048Z,20.20
2018-08-10T18:42:17.217Z,20.10
2018-08-10T18:44:47.344Z,19.90
2018-08-10T18:47:17.388Z,19.90
2018-08-10T18:49:47.731Z,19.80
2018-08-10T18:52:17.726Z,19.80
2018-08-10T18:54:47.861Z,19.80
2018-08-10T18:57:18.129Z,19.70
2018-08-10T18:59:48.599Z,19.60
2018-08-10T19:02:21.817Z,19.50
2018-08-10T19:04:51.841Z,19.50
2018-08-10T19:07:25.501Z,19.50
2018-08-10T19:09:55.593Z,19.50
2018-08-10T19:12:25.712Z,19.50
2018-08-10T19:14:55.721Z,19.50
2018-08-10T19:17:25.806Z,19.50
2018-08-10T19:19:55.915Z,19.40
2018-08-10T19:22:26.218Z,19.40
2018-08-10T19:24:56.348Z,19.30
2018-08-10T19:27:26.526Z,19.20
2018-08-10T19:29:56.780Z,19.10
2018-08-10T19:32:27.021Z,19.00
2018-08-10T19:34:57.404Z,18.90
2018-08-10T19:37:27.676Z,18.80
2018-08-10T19:39:58.620Z,18.60
2018-08-10T19:42:28.914Z,18.40
2018-08-10T19:44:58.981Z,18.20
2018-08-10T19:47:29.045Z,18.00
2018-08-10T19:49:59.083Z,17.90
2018-08-10T19:52:29.125Z,17.80
2018-08-10T19:54:59.433Z,17.70
2018-08-10T19:57:29.545Z,17.60
2018-08-10T19:59:59.729Z,17.50
2018-08-10T20:02:30.295Z,17.50
2018-08-10T20:05:00.515Z,17.50
2018-08-10T20:07:30.810Z,17.40
2018-08-10T20:10:04.978Z,17.30
2018-08-10T20:12:35.177Z,17.20
2018-08-10T20:15:06.965Z,17.20
2018-08-10T20:17:36.968Z,17.20
2018-08-10T20:20:08.344Z,17.10
2018-08-10T20:22:40.512Z,17.10
2018-08-10T20:25:12.039Z,17.10
2018-08-10T20:27:42.281Z,17.10
2018-08-10T20:30:15.009Z,17.00
2018-08-10T20:32:45.571Z,17.00
2018-08-10T20:35:18.681Z,17.00
2018-08-10T20:37:48.894Z,16.90
2018-08-10T20:40:20.875Z,16.80
2018-08-10T20:42:51.081Z,16.80
2018-08-10T20:45:21.689Z,16.80
2018-08-10T20:47:51.716Z,16.70
2018-08-10T20:50:23.387Z,16.60
2018-08-10T20:52:53.607Z,16.50
2018-08-10T20:55:23.787Z,16.50
2018-08-10T20:57:53.820Z,16.40
2018-08-10T21:00:24.069Z,16.40
2018-08-10T21:02:54.322Z,16.40
2018-08-10T21:05:24.536Z,16.30
2018-08-10T21:07:54.899Z,16.30
2018-08-10T21:10:24.922Z,16.20
2018-08-10T21:12:55.093Z,16.10
2018-08-10T21:15:25.354Z,16.10
2018-08-10T21:17:55.441Z,16.00
2018-08-10T21:20:25.497Z,15.90
2018-08-10T21:22:55.502Z,15.80
2018-08-10T21:25:25.701Z,15.70
2018-08-10T21:27:55.925Z,15.70
2018-08-10T21:30:26.009Z,15.70
2018-08-10T21:32:56.124Z,15.70
2018-08-10T21:35:26.340Z,15.70
2018-08-10T21:37:56.464Z,15.70
2018-08-10T21:40:26.914Z,15.60
2018-08-10T21:42:56.980Z,15.50
2018-08-10T21:45:26.994Z,15.60
2018-08-10T21:47:57.065Z,15.50
2018-08-10T21:50:27.237Z,15.50
2018-08-10T21:52:57.455Z,15.50
2018-08-10T21:55:27.605Z,15.50
2018-08-10T21:57:57.849Z,15.40
2018-08-10T22:01:10.517Z,15.40
2018-08-10T22:03:40.747Z,15.40
2018-08-10T22:06:10.889Z,15.40
2018-08-10T22:08:40.975Z,15.40
2018-08-10T22:11:11.163Z,15.40
2018-08-10T22:13:46.310Z,15.40
2018-08-10T22:16:21.266Z,15.30
2018-08-10T22:18:56.402Z,15.30
2018-08-10T22:21:26.514Z,15.30
2018-08-10T22:23:56.507Z,15.30
2018-08-10T22:26:26.767Z,15.30
2018-08-10T22:28:56.995Z,15.20
2018-08-10T22:31:27.222Z,15.10
2018-08-10T22:33:57.528Z,15.10
2018-08-10T22:36:27.935Z,15.00
2018-08-10T22:38:58.416Z,15.10
2018-08-10T22:41:28.728Z,15.00
2018-08-10T22:43:59.087Z,15.10
2018-08-10T22:46:29.402Z,15.10
2018-08-10T22:49:00.734Z,15.20
2018-08-10T22:51:31.207Z,15.20
2018-08-10T22:54:01.565Z,15.20
2018-08-10T22:56:31.971Z,15.10
2018-08-10T22:59:02.310Z,15.00
2018-08-10T23:01:32.856Z,15.00
2018-08-10T23:04:03.552Z,15.00
2018-08-10T23:06:34.172Z,15.00
2018-08-10T23:09:06.687Z,15.00
2018-08-10T23:11:37.226Z,15.00
2018-08-10T23:14:08.107Z,15.00
2018-08-10T23:16:39.045Z,14.90
2018-08-10T23:19:10.588Z,14.80
2018-08-10T23:21:46.840Z,14.80
2018-08-10T23:24:17.300Z,14.80
2018-08-10T23:26:47.762Z,14.70
2018-08-10T23:29:18.315Z,14.70
2018-08-10T23:31:48.767Z,14.60
2018-08-10T23:34:19.146Z,14.50
2018-08-10T23:36:49.522Z,14.50
2018-08-10T23:39:19.962Z,14.40
2018-08-10T23:41:50.583Z,14.40
2018-08-10T23:44:20.971Z,14.40
2018-08-10T23:46:51.242Z,14.30
2018-08-10T23:49:21.639Z,14.30
2018-08-10T23:51:52.027Z,14.30
2018-08-10T23:54:22.286Z,14.30
2018-08-10T23:56:52.742Z,14.30
2018-08-10T23:59:23.316Z,14.30
